Time;durP1;ratioP1;P1;durP2;ratioP2;P2;SDS_P1;SDS_P2;PMS_P1;PMS_P2;Temp;Humidity;BMP_temperature;BMP_pressure;BME280_temperature;BME280_humidity;BME280_pressure;Samples;Min_cycle;Max_cycle;Signal;HPM_P1;HPM_P2
2022/11/23 00:01:28;;;;;;;9.57;5.80;;;;;;;2.17;81.22;94332.66;1661843;86;21002;-72
2022/11/23 00:03:58;;;;;;;8.80;5.43;;;;;;;2.21;81.10;94335.65;1662901;86;21038;-72
2022/11/23 00:06:25;;;;;;;8.10;5.30;;;;;;;2.21;81.11;94339.55;1652551;86;21089;-72
2022/11/23 00:08:53;;;;;;;9.00;5.57;;;;;;;2.21;81.30;94338.70;1661775;85;21533;-72
2022/11/23 00:11:21;;;;;;;9.13;5.13;;;;;;;2.19;81.19;94339.14;1662351;85;21529;-72
2022/11/23 00:13:48;;;;;;;8.47;5.73;;;;;;;2.15;81.09;94332.66;1663366;86;21040;-72
2022/11/23 00:16:25;;;;;;;7.37;4.80;;;;;;;2.13;81.23;94336.14;1662112;85;21070;-72
2022/11/23 00:18:57;;;;;;;9.20;4.40;;;;;;;2.12;80.94;94332.69;1662080;85;21042;-72
2022/11/23 00:21:26;;;;;;;6.80;5.07;;;;;;;2.11;80.91;94323.58;1662061;86;21462;-72
2022/11/23 00:23:53;;;;;;;11.13;5.37;;;;;;;2.12;80.85;94331.39;1663535;86;21089;-72
2022/11/23 00:26:20;;;;;;;7.57;5.43;;;;;;;2.17;80.89;94340.47;1662215;86;21018;-72
2022/11/23 00:28:47;;;;;;;10.47;5.50;;;;;;;2.18;81.19;94335.67;1662030;86;21078;-72
2022/11/23 00:31:17;;;;;;;8.40;5.30;;;;;;;2.21;80.94;94333.05;1662224;85;21516;-72
2022/11/23 00:33:53;;;;;;;7.43;4.57;;;;;;;2.26;80.91;94333.02;1663643;86;21517;-72
2022/11/23 00:36:21;;;;;;;9.90;5.00;;;;;;;2.31;80.89;94319.54;1662918;86;21533;-72
2022/11/23 00:38:49;;;;;;;12.13;5.67;;;;;;;2.36;80.85;94308.20;1663365;86;20995;-72
2022/11/23 00:41:21;;;;;;;9.53;5.07;;;;;;;2.41;80.75;94318.59;1662570;86;21046;-72
2022/11/23 00:43:47;;;;;;;7.67;4.60;;;;;;;2.46;80.64;94315.95;1663201;86;21481;-71
2022/11/23 00:46:21;;;;;;;11.03;6.03;;;;;;;2.49;80.33;94314.63;1662417;86;21046;-71
2022/11/23 00:48:51;;;;;;;8.47;5.80;;;;;;;2.55;81.21;94316.75;1662021;86;20999;-70
2022/11/23 00:51:23;;;;;;;9.93;5.83;;;;;;;2.57;81.02;94314.11;1662074;86;21014;-70
2022/11/23 00:53:51;;;;;;;10.47;6.50;;;;;;;2.57;81.09;94303.28;1661656;85;21038;-71
2022/11/23 00:56:19;;;;;;;14.53;8.47;;;;;;;2.60;81.27;94308.91;1662065;86;21012;-72
2022/11/23 00:58:54;;;;;;;13.93;7.90;;;;;;;2.59;81.65;94297.59;1661904;86;21548;-72
2022/11/23 01:01:29;;;;;;;9.40;6.50;;;;;;;2.58;81.01;94302.39;1662158;85;21003;-72
2022/11/23 01:03:58;;;;;;;11.40;7.07;;;;;;;2.58;81.42;94301.09;1663248;86;21054;-72
2022/11/23 01:06:30;;;;;;;9.93;6.00;;;;;;;2.55;81.48;94300.27;1662558;85;21115;-72
2022/11/23 01:09:00;;;;;;;7.73;4.90;;;;;;;2.51;81.43;94308.97;1662868;85;21026;-72
2022/11/23 01:11:29;;;;;;;9.70;5.90;;;;;;;2.44;81.49;94306.84;1661934;86;21031;-72
2022/11/23 01:13:57;;;;;;;12.93;6.80;;;;;;;2.37;81.39;94303.89;1652101;86;21928;-72
2022/11/23 01:16:28;;;;;;;12.97;7.33;;;;;;;2.31;82.02;94305.22;1662124;86;21082;-72
2022/11/23 01:19:02;;;;;;;12.87;6.67;;;;;;;2.28;82.18;94315.66;1643855;86;21552;-72
2022/11/23 01:21:31;;;;;;;17.30;7.13;;;;;;;2.26;82.07;94318.70;1647132;87;21047;-72
2022/11/23 01:23:59;;;;;;;13.47;7.23;;;;;;;2.24;82.06;94313.95;1647096;87;21035;-72
2022/11/23 01:26:26;;;;;;;17.70;9.27;;;;;;;2.24;81.96;94313.50;1647155;87;21551;-72
2022/11/23 01:28:52;;;;;;;9.93;6.60;;;;;;;2.29;82.03;94300.46;1647346;87;21051;-72
2022/11/23 01:31:23;;;;;;;15.50;8.67;;;;;;;2.29;82.00;94293.55;1647258;87;21047;-72
2022/11/23 01:34:01;;;;;;;19.13;10.37;;;;;;;2.34;82.17;94296.97;1647183;87;20999;-72
2022/11/23 01:36:31;;;;;;;14.93;9.50;;;;;;;2.39;82.07;94298.20;1647323;87;21545;-72
2022/11/23 01:39:00;;;;;;;10.53;6.30;;;;;;;2.45;82.04;94295.58;1646550;87;21015;-72
2022/11/23 01:41:31;;;;;;;8.37;4.77;;;;;;;2.49;81.80;94290.74;1646882;87;21537;-72
2022/11/23 01:43:58;;;;;;;10.40;5.73;;;;;;;2.55;81.54;94282.05;1647387;87;21097;-72
2022/11/23 01:46:25;;;;;;;10.83;5.97;;;;;;;2.58;81.42;94272.45;1652587;87;21038;-72
2022/11/23 01:49:02;;;;;;;10.87;6.03;;;;;;;2.52;80.87;94276.84;1647095;87;21035;-72
2022/11/23 01:51:39;;;;;;;16.10;8.10;;;;;;;2.54;80.92;94269.44;1647159;87;21086;-72
2022/11/23 01:54:17;;;;;;;22.00;10.77;;;;;;;2.58;81.04;94276.36;1646844;87;21103;-72
2022/11/23 01:56:48;;;;;;;11.00;6.07;;;;;;;2.54;81.00;94277.69;1647374;87;21026;-72
2022/11/23 01:59:18;;;;;;;9.37;5.53;;;;;;;2.55;81.06;94272.48;1647436;87;21067;-72
2022/11/23 02:01:45;;;;;;;10.70;5.50;;;;;;;2.47;81.04;94271.70;1647181;87;21082;-72
2022/11/23 02:04:25;;;;;;;9.13;5.10;;;;;;;2.48;80.97;94272.55;1647129;87;21046;-72
2022/11/23 02:06:54;;;;;;;12.77;6.83;;;;;;;2.45;81.01;94267.38;1647152;87;21098;-72
2022/11/23 02:09:21;;;;;;;12.10;5.40;;;;;;;2.40;81.50;94269.16;1647105;87;21090;-72
2022/11/23 02:11:48;;;;;;;8.60;5.67;;;;;;;2.40;81.29;94273.06;1647160;87;21038;-72
2022/11/23 02:14:15;;;;;;;12.47;6.90;;;;;;;2.40;81.35;94274.37;1647284;87;21054;-72
2022/11/23 02:16:42;;;;;;;7.70;4.67;;;;;;;2.36;81.86;94271.77;1630544;87;21046;-72
2022/11/23 02:19:14;;;;;;;11.83;6.97;;;;;;;2.39;81.69;94277.38;1649172;87;21497;-72
2022/11/23 02:21:42;;;;;;;17.53;7.90;;;;;;;2.39;82.23;94281.29;1604471;86;21892;-72
2022/11/23 02:24:34;;;;;;;12.33;7.23;;;;;;;2.38;82.23;94269.16;1667045;85;21607;-72
2022/11/23 02:27:05;;;;;;;11.80;6.07;;;;;;;2.36;82.66;94273.52;1667173;85;21002;-71
2022/11/23 02:29:34;;;;;;;12.37;6.60;;;;;;;2.33;82.74;94277.00;1673254;86;21034;-71
2022/11/23 02:32:01;;;;;;;7.73;4.13;;;;;;;2.34;82.17;94276.56;1673458;86;21022;-72
2022/11/23 02:34:27;;;;;;;11.67;5.77;;;;;;;2.36;82.06;94275.67;1673228;86;21041;-72
2022/11/23 02:36:56;;;;;;;13.43;5.57;;;;;;;2.37;82.35;94279.16;1673292;86;21017;-72
2022/11/23 02:39:37;;;;;;;11.40;6.50;;;;;;;2.42;82.45;94284.30;1673286;86;21033;-72
2022/11/23 02:42:05;;;;;;;9.63;6.20;;;;;;;2.41;82.38;94281.29;1673375;86;21614;-72
2022/11/23 02:45:01;;;;;;;9.13;5.70;;;;;;;2.46;82.57;94273.86;1673106;86;21041;-72
2022/11/23 02:47:29;;;;;;;9.07;5.03;;;;;;;2.48;82.45;94274.72;1673305;86;21063;-72
2022/11/23 02:49:55;;;;;;;8.23;4.73;;;;;;;2.53;82.82;94262.96;1673252;86;21041;-72
2022/11/23 02:52:22;;;;;;;7.73;5.20;;;;;;;2.65;83.00;94255.48;1673268;86;21086;-72
2022/11/23 02:54:48;;;;;;;7.20;4.83;;;;;;;2.71;82.63;94252.80;1673274;86;21049;-72
2022/11/23 02:57:16;;;;;;;8.70;4.97;;;;;;;2.72;82.50;94254.52;1667161;85;21029;-72
2022/11/23 02:59:44;;;;;;;6.63;4.80;;;;;;;2.73;82.69;94262.77;1673402;86;21026;-72
2022/11/23 03:02:11;;;;;;;7.20;5.03;;;;;;;2.66;82.81;94265.86;1673342;85;21078;-72
2022/11/23 03:04:37;;;;;;;7.97;4.40;;;;;;;2.60;82.75;94260.28;1673251;85;21021;-72
2022/11/23 03:07:04;;;;;;;5.77;3.83;;;;;;;2.63;83.15;94261.14;1673321;85;21523;-72
2022/11/23 03:09:32;;;;;;;14.23;7.83;;;;;;;2.63;83.08;94255.93;1673224;85;21010;-72
2022/11/23 03:11:58;;;;;;;20.00;10.50;;;;;;;2.50;83.50;94269.06;1673323;85;21552;-72
2022/11/23 03:14:26;;;;;;;21.40;9.70;;;;;;;2.42;84.17;94269.58;1673298;86;21069;-72
2022/11/23 03:16:55;;;;;;;12.10;6.23;;;;;;;2.38;84.22;94262.21;1673206;85;21038;-72
2022/11/23 03:19:22;;;;;;;8.07;5.00;;;;;;;2.42;83.76;94268.69;1661027;85;21557;-72
2022/11/23 03:21:50;;;;;;;11.63;6.17;;;;;;;2.41;83.76;94261.77;1654622;87;21042;-72
2022/11/23 03:24:16;;;;;;;15.50;8.27;;;;;;;2.40;83.47;94250.50;1654298;87;21071;-72
2022/11/23 03:26:44;;;;;;;24.10;11.67;;;;;;;2.40;83.71;94249.19;1654377;87;21042;-72
2022/11/23 03:29:12;;;;;;;16.30;9.03;;;;;;;2.41;83.39;94244.84;1654625;86;21054;-72
2022/11/23 03:31:39;;;;;;;10.50;6.53;;;;;;;2.33;84.18;94242.31;1654485;87;21058;-72
2022/11/23 03:34:09;;;;;;;9.07;6.23;;;;;;;2.31;83.58;94250.12;1654526;86;21050;-72
2022/11/23 03:36:37;;;;;;;10.77;6.10;;;;;;;2.27;84.62;94254.95;1654587;86;21030;-72
2022/11/23 03:39:04;;;;;;;9.90;6.30;;;;;;;2.23;84.75;94263.64;1654358;87;21042;-72
2022/11/23 03:41:51;;;;;;;7.20;5.10;;;;;;;2.22;84.09;94264.53;1654853;86;21046;-72
2022/11/23 03:44:19;;;;;;;9.53;5.47;;;;;;;2.20;84.48;94266.72;1654539;87;21102;-72
2022/11/23 03:46:45;;;;;;;8.83;5.20;;;;;;;2.21;84.87;94252.82;1654595;86;21532;-72
2022/11/23 03:49:12;;;;;;;9.80;5.87;;;;;;;2.22;84.85;94254.53;1654745;87;21039;-72
2022/11/23 03:51:39;;;;;;;9.20;5.70;;;;;;;2.25;84.58;94254.53;1654790;87;21557;-72
2022/11/23 03:54:05;;;;;;;9.37;5.50;;;;;;;2.23;85.15;94257.58;1654662;87;21038;-72
2022/11/23 03:56:33;;;;;;;10.83;5.30;;;;;;;2.28;84.87;94260.56;1658129;86;21493;-72
2022/11/23 03:59:00;;;;;;;14.23;8.27;;;;;;;2.31;84.88;94264.44;1654670;87;21048;-72
2022/11/23 04:01:28;;;;;;;21.37;9.83;;;;;;;2.33;85.01;94262.69;1654619;87;21018;-72
2022/11/23 04:03:56;;;;;;;15.53;8.50;;;;;;;2.38;85.33;94267.41;1654739;86;21066;-72
2022/11/23 04:06:34;;;;;;;13.80;7.93;;;;;;;2.33;85.36;94275.70;1654893;86;21027;-72
2022/11/23 04:09:02;;;;;;;15.97;7.53;;;;;;;2.24;86.08;94274.47;1654379;86;21059;-72
2022/11/23 04:11:48;;;;;;;16.97;7.80;;;;;;;2.22;86.34;94274.94;1654844;87;21517;-72
2022/11/23 04:14:14;;;;;;;17.40;7.83;;;;;;;2.19;86.81;94269.73;1654586;86;21485;-72
2022/11/23 04:16:42;;;;;;;12.50;8.73;;;;;;;2.21;86.82;94273.64;1654708;86;20991;-72
2022/11/23 04:19:09;;;;;;;14.77;7.97;;;;;;;2.22;87.19;94280.55;1666697;86;21046;-72
2022/11/23 04:21:36;;;;;;;31.50;15.90;;;;;;;2.24;86.94;94278.81;1671984;86;21058;-72
2022/11/23 04:24:04;;;;;;;27.10;14.50;;;;;;;2.30;86.47;94278.78;1664050;86;21053;-72
2022/11/23 04:26:31;;;;;;;16.97;10.30;;;;;;;2.32;86.52;94271.83;1664186;86;21046;-72
2022/11/23 04:28:58;;;;;;;13.37;8.10;;;;;;;2.41;86.49;94274.78;1664103;86;21018;-72
2022/11/23 04:31:25;;;;;;;16.40;9.90;;;;;;;2.46;86.26;94277.77;1664246;86;21540;-72
2022/11/23 04:33:56;;;;;;;14.30;9.17;;;;;;;2.53;86.27;94284.65;1664654;85;20998;-71
2022/11/23 04:36:23;;;;;;;19.23;11.90;;;;;;;2.63;86.67;94281.97;1664122;86;21046;-71
2022/11/23 04:38:51;;;;;;;20.67;13.00;;;;;;;2.68;86.25;94281.05;1664105;86;21480;-72
2022/11/23 04:41:19;;;;;;;29.70;17.63;;;;;;;2.61;85.76;94279.37;1664141;86;21105;-71
2022/11/23 04:43:49;;;;;;;24.23;13.33;;;;;;;2.53;85.55;94283.34;1664232;85;21083;-72
2022/11/23 04:46:15;;;;;;;24.67;13.90;;;;;;;2.47;85.73;94284.72;1664261;86;21030;-72
2022/11/23 04:48:42;;;;;;;25.70;13.93;;;;;;;2.44;85.93;94289.92;1665750;85;21026;-72
2022/11/23 04:51:09;;;;;;;16.70;8.50;;;;;;;2.40;86.19;94280.43;1664194;86;21062;-71
2022/11/23 04:53:37;;;;;;;13.60;7.60;;;;;;;2.45;86.05;94273.44;1664185;85;21018;-72
2022/11/23 04:56:05;;;;;;;8.07;5.33;;;;;;;2.50;86.02;94264.30;1663769;86;21086;-72
2022/11/23 04:58:35;;;;;;;8.97;5.03;;;;;;;2.53;85.61;94259.91;1664294;85;21022;-72
2022/11/23 05:01:02;;;;;;;10.97;5.77;;;;;;;2.54;85.25;94261.63;1664266;86;21006;-72
2022/11/23 05:03:30;;;;;;;23.83;12.67;;;;;;;2.44;85.63;94269.09;1664132;85;21022;-72
2022/11/23 05:06:02;;;;;;;20.23;12.30;;;;;;;2.40;85.53;94277.83;1664367;86;21516;-72
2022/11/23 05:08:30;;;;;;;14.33;9.90;;;;;;;2.36;85.96;94267.00;1664452;86;21496;-72
2022/11/23 05:10:59;;;;;;;28.23;16.97;;;;;;;2.34;86.25;94277.45;1663856;86;21548;-72
2022/11/23 05:13:26;;;;;;;45.20;23.70;;;;;;;2.32;86.30;94274.44;1664153;86;21085;-72
2022/11/23 05:15:52;;;;;;;22.13;13.40;;;;;;;2.32;86.23;94269.23;1664237;86;21532;-72
2022/11/23 05:18:21;;;;;;;27.83;14.13;;;;;;;2.30;86.65;94269.23;1665245;85;21532;-72
2022/11/23 05:20:49;;;;;;;13.03;7.80;;;;;;;2.32;86.45;94263.58;1668723;86;21006;-72
2022/11/23 05:23:16;;;;;;;6.70;5.27;;;;;;;2.33;86.25;94261.39;1668677;86;21030;-72
2022/11/23 05:25:43;;;;;;;9.00;6.60;;;;;;;2.35;85.97;94257.04;1668242;86;21037;-72
2022/11/23 05:28:21;;;;;;;19.50;11.47;;;;;;;2.36;85.83;94256.59;1668652;86;21013;-72
2022/11/23 05:30:48;;;;;;;23.07;13.30;;;;;;;2.34;86.03;94251.42;1668625;86;21038;-73
2022/11/23 05:33:15;;;;;;;18.10;12.43;;;;;;;2.35;85.89;94253.58;1668697;86;21053;-72
2022/11/23 05:35:42;;;;;;;18.17;10.87;;;;;;;2.37;85.78;94247.92;1668499;86;21046;-72
2022/11/23 05:38:08;;;;;;;20.80;13.07;;;;;;;2.40;85.73;94245.73;1668752;86;21053;-73
2022/11/23 05:40:35;;;;;;;17.07;9.33;;;;;;;2.38;85.83;94255.70;1668327;86;21555;-73
2022/11/23 05:43:03;;;;;;;7.90;5.30;;;;;;;2.39;85.78;94251.35;1668133;86;20990;-73
2022/11/23 05:45:30;;;;;;;9.13;5.10;;;;;;;2.45;86.03;94250.02;1667948;86;21054;-73
2022/11/23 05:47:58;;;;;;;7.17;4.70;;;;;;;2.54;86.43;94236.89;1668143;86;21520;-73
2022/11/23 05:50:30;;;;;;;8.35;4.70;;;;;;;2.57;85.70;94239.91;1668962;86;21544;-73
2022/11/23 05:53:15;;;;;;;7.57;3.83;;;;;;;2.51;85.26;94246.04;1668528;86;21548;-72
2022/11/23 05:55:44;;;;;;;7.07;4.90;;;;;;;2.44;84.99;94248.27;1667889;86;20995;-73
2022/11/23 05:58:11;;;;;;;7.13;4.90;;;;;;;2.37;85.18;94249.23;1668983;86;21066;-72
2022/11/23 06:00:38;;;;;;;9.33;4.37;;;;;;;2.39;85.40;94255.26;1668342;86;21065;-70
2022/11/23 06:03:05;;;;;;;10.00;5.03;;;;;;;2.30;84.53;94262.72;1667938;86;21053;-70
2022/11/23 06:05:32;;;;;;;7.20;3.77;;;;;;;2.18;84.37;94268.47;1667206;86;21513;-66
2022/11/23 06:07:59;;;;;;;6.53;4.07;;;;;;;2.07;84.70;94270.72;1667705;86;21583;-71
2022/11/23 06:10:27;;;;;;;5.67;4.03;;;;;;;2.00;84.80;94261.22;1667277;86;21141;-68
2022/11/23 06:12:55;;;;;;;7.90;5.23;;;;;;;1.97;84.70;94257.80;1667664;86;21014;-69
2022/11/23 06:15:22;;;;;;;9.47;5.37;;;;;;;1.97;84.82;94255.19;1667703;86;21045;-70
2022/11/23 06:17:49;;;;;;;25.17;13.33;;;;;;;1.92;84.75;94252.62;1668324;86;21017;-68
2022/11/23 06:20:17;;;;;;;20.27;12.33;;;;;;;1.88;85.85;94252.20;1667269;85;21133;-70
2022/11/23 06:22:53;;;;;;;26.20;15.70;;;;;;;1.85;86.48;94255.69;1667555;86;21097;-68
2022/11/23 06:25:21;;;;;;;47.17;22.57;;;;;;;1.85;87.53;94266.09;1667868;86;21077;-69
2022/11/23 06:28:08;;;;;;;16.87;9.80;;;;;;;1.84;87.03;94256.57;1668314;86;21089;-68
2022/11/23 06:30:36;;;;;;;25.77;14.37;;;;;;;1.88;86.97;94250.45;1668511;86;21090;-67
2022/11/23 06:33:04;;;;;;;24.57;14.67;;;;;;;1.88;87.88;94249.16;1667380;86;21081;-68
2022/11/23 06:35:33;;;;;;;29.00;17.67;;;;;;;1.91;87.71;94259.53;1668255;86;20994;-67
2022/11/23 06:38:00;;;;;;;81.03;40.17;;;;;;;1.98;87.46;94256.46;1668311;86;21057;-71
2022/11/23 06:40:27;;;;;;;40.60;21.93;;;;;;;1.97;87.42;94263.85;1667964;86;20990;-72
2022/11/23 06:42:59;;;;;;;44.60;23.47;;;;;;;1.97;88.06;94269.50;1668621;86;21046;-75
2022/11/23 06:45:27;;;;;;;97.22;41.20;;;;;;;2.00;87.73;94270.33;1667749;86;21106;-74
2022/11/23 06:47:56;;;;;;;42.30;23.47;;;;;;;2.08;87.70;94267.66;1667354;86;21057;-70
2022/11/23 06:50:22;;;;;;;33.13;18.40;;;;;;;2.11;87.99;94267.64;1667888;86;21032;-76
2022/11/23 06:52:55;;;;;;;88.43;48.60;;;;;;;2.15;87.36;94273.25;1667566;86;21547;-68
2022/11/23 06:55:25;;;;;;;28.23;16.07;;;;;;;2.21;87.27;94267.98;1667771;86;21520;-69
2022/11/23 06:57:53;;;;;;;29.37;15.00;;;;;;;2.27;87.08;94270.97;1667533;86;21530;-74
2022/11/23 07:00:20;;;;;;;34.23;17.90;;;;;;;2.32;87.04;94267.93;1667949;86;21049;-71
2022/11/23 07:02:54;;;;;;;36.07;16.97;;;;;;;2.45;87.11;94270.84;1667736;86;21084;-70
2022/11/23 07:05:23;;;;;;;21.57;13.50;;;;;;;2.51;86.64;94275.98;1668135;85;21069;-68
2022/11/23 07:07:50;;;;;;;23.60;15.13;;;;;;;2.52;86.37;94269.02;1668307;86;21619;-76
2022/11/23 07:10:19;;;;;;;31.47;18.30;;;;;;;2.51;86.35;94275.13;1668521;86;21021;-74
2022/11/23 07:12:47;;;;;;;25.73;15.27;;;;;;;2.49;86.34;94271.66;1668512;86;21115;-68
2022/11/23 07:15:15;;;;;;;15.33;10.13;;;;;;;2.53;86.85;94282.05;1678701;85;21044;-73
2022/11/23 07:17:45;;;;;;;14.17;9.47;;;;;;;2.62;86.89;94274.61;1688831;85;21078;-71
2022/11/23 07:20:12;;;;;;;19.27;11.67;;;;;;;2.64;86.57;94268.06;1672934;85;21030;-72
2022/11/23 07:22:39;;;;;;;26.60;17.47;;;;;;;2.63;86.61;94268.95;1668215;86;21038;-77
2022/11/23 07:25:07;;;;;;;26.03;18.13;;;;;;;2.64;86.53;94274.12;1668533;86;21049;-72
2022/11/23 07:27:34;;;;;;;40.67;24.37;;;;;;;2.64;86.44;94275.88;1667202;86;21124;-70
2022/11/23 07:30:01;;;;;;;154.17;71.73;;;;;;;2.65;86.47;94272.41;1668118;86;21013;-76
2022/11/23 07:32:28;;;;;;;63.20;35.73;;;;;;;2.65;86.05;94275.02;1667702;86;21105;-67
2022/11/23 07:34:55;;;;;;;25.63;15.53;;;;;;;2.63;86.57;94274.16;1667848;86;21044;-70
2022/11/23 07:37:22;;;;;;;29.87;16.83;;;;;;;2.69;86.85;94268.87;1666790;86;21093;-69
2022/11/23 07:39:51;;;;;;;52.77;30.03;;;;;;;2.71;87.03;94275.80;1666725;86;21057;-71
2022/11/23 07:42:19;;;;;;;43.47;26.80;;;;;;;2.72;86.76;94270.14;1666427;86;21121;-66
2022/11/23 07:44:46;;;;;;;41.23;28.40;;;;;;;2.75;86.86;94261.87;1667765;86;21053;-67
2022/11/23 07:47:13;;;;;;;60.73;33.43;;;;;;;2.82;86.76;94258.75;1668135;86;20979;-68
2022/11/23 07:49:39;;;;;;;41.53;23.27;;;;;;;2.90;86.68;94258.67;1668521;86;21090;-67
2022/11/23 07:52:06;;;;;;;36.90;20.37;;;;;;;2.95;86.05;94264.73;1668633;86;21065;-69
2022/11/23 07:54:32;;;;;;;25.43;13.90;;;;;;;3.03;85.72;94258.98;1668743;86;21102;-70
2022/11/23 07:56:59;;;;;;;13.80;7.57;;;;;;;3.14;85.43;94247.13;1668634;86;21014;-67
2022/11/23 07:59:26;;;;;;;50.87;35.03;;;;;;;3.28;84.92;94240.02;1667812;85;21077;-72
2022/11/23 08:01:52;;;;;;;67.13;46.77;;;;;;;3.45;84.08;94248.90;1667339;86;21040;-66
2022/11/23 08:04:19;;;;;;;42.17;29.30;;;;;;;3.58;84.57;94248.30;1667815;86;21077;-69
2022/11/23 08:06:46;;;;;;;12.37;9.33;;;;;;;3.75;84.21;94246.77;1667296;86;21077;-67
2022/11/23 08:09:12;;;;;;;14.83;9.33;;;;;;;3.89;83.10;94241.78;1668531;86;21030;-75
2022/11/23 08:11:39;;;;;;;9.73;6.27;;;;;;;4.01;82.69;94242.50;1667194;86;20998;-71
2022/11/23 08:14:05;;;;;;;8.23;6.00;;;;;;;4.11;81.82;94241.47;1668018;86;21057;-66
2022/11/23 08:16:32;;;;;;;13.13;8.00;;;;;;;4.11;79.91;94237.11;1668042;86;21571;-71
2022/11/23 08:18:58;;;;;;;69.30;52.67;;;;;;;4.14;79.91;94236.20;1667002;85;21131;-69
2022/11/23 08:21:25;;;;;;;23.70;17.00;;;;;;;4.15;80.11;94233.13;1662765;86;21125;-70
2022/11/23 08:23:52;;;;;;;18.53;13.13;;;;;;;4.24;80.13;94227.33;1662897;86;21639;-69
2022/11/23 08:26:19;;;;;;;20.67;12.20;;;;;;;4.36;80.08;94233.22;1662625;86;21010;-68
2022/11/23 08:28:47;;;;;;;14.37;9.07;;;;;;;4.49;80.65;94234.77;1664194;86;21077;-73
2022/11/23 08:31:14;;;;;;;12.00;7.20;;;;;;;4.61;80.37;94232.36;1663107;85;21093;-72
2022/11/23 08:33:41;;;;;;;15.90;7.77;;;;;;;4.66;79.63;94227.50;1663187;86;21081;-70
2022/11/23 08:36:08;;;;;;;20.83;13.33;;;;;;;4.66;78.54;94232.72;1662566;86;21045;-70
2022/11/23 08:38:35;;;;;;;16.43;12.20;;;;;;;4.58;78.30;94231.97;1663345;86;21089;-71
2022/11/23 08:41:04;;;;;;;29.80;20.63;;;;;;;4.55;78.15;94240.72;1663599;86;21022;-73
2022/11/23 08:43:31;;;;;;;23.37;15.83;;;;;;;4.60;78.07;94234.56;1663226;86;21077;-69
2022/11/23 08:45:59;;;;;;;25.17;18.23;;;;;;;4.62;78.90;94224.51;1663463;86;21376;-71
2022/11/23 08:48:27;;;;;;;11.73;7.20;;;;;;;4.67;78.83;94228.35;1662336;86;21069;-66
2022/11/23 08:50:57;;;;;;;11.33;7.70;;;;;;;4.69;78.48;94231.35;1663729;85;21034;-76
2022/11/23 08:53:24;;;;;;;11.17;7.87;;;;;;;4.66;78.11;94230.53;1664283;86;21561;-74
2022/11/23 08:55:51;;;;;;;14.63;8.47;;;;;;;4.65;78.64;94224.45;1663198;86;21128;-80
2022/11/23 08:58:18;;;;;;;14.27;8.13;;;;;;;4.64;78.46;94229.27;1663886;86;21048;-72
2022/11/23 09:00:44;;;;;;;11.37;5.80;;;;;;;4.62;78.50;94228.42;1664509;86;21453;-70
2022/11/23 09:03:11;;;;;;;12.33;6.37;;;;;;;4.66;79.07;94234.03;1663931;85;21011;-75
2022/11/23 09:05:38;;;;;;;10.40;6.27;;;;;;;4.76;79.28;94230.77;1664162;86;21102;-69
2022/11/23 09:08:05;;;;;;;8.87;5.50;;;;;;;4.84;78.93;94232.83;1663850;86;21102;-77
2022/11/23 09:10:32;;;;;;;14.33;7.47;;;;;;;4.94;78.94;94226.98;1663701;86;21026;-70
2022/11/23 09:12:59;;;;;;;14.03;8.17;;;;;;;5.08;78.21;94230.18;1663117;85;21564;-70
2022/11/23 09:15:25;;;;;;;8.20;5.07;;;;;;;5.25;78.38;94225.94;1663164;86;21065;-72
2022/11/23 09:17:53;;;;;;;9.27;5.50;;;;;;;5.49;77.65;94225.86;1663492;86;21110;-72
2022/11/23 09:20:20;;;;;;;10.67;6.50;;;;;;;5.72;78.29;94212.73;1663392;85;21073;-72
2022/11/23 09:22:52;;;;;;;13.33;7.20;;;;;;;5.86;76.00;94215.45;1663118;86;21117;-72
2022/11/23 09:25:20;;;;;;;12.00;8.50;;;;;;;5.98;76.65;94209.58;1663449;86;21630;-73
2022/11/23 09:27:49;;;;;;;7.97;6.03;;;;;;;6.14;75.34;94210.92;1661948;86;21168;-73
2022/11/23 09:30:16;;;;;;;11.43;7.67;;;;;;;6.27;76.07;94204.52;1662951;86;21053;-73
2022/11/23 09:32:43;;;;;;;11.20;7.50;;;;;;;6.43;76.20;94202.38;1663409;85;21085;-69
2022/11/23 09:35:09;;;;;;;10.67;6.43;;;;;;;6.63;76.45;94199.70;1662524;86;21080;-70
2022/11/23 09:37:36;;;;;;;7.47;5.43;;;;;;;6.69;75.75;94191.67;1663539;85;21076;-71
2022/11/23 09:40:04;;;;;;;7.43;4.77;;;;;;;6.70;75.29;94192.07;1662571;86;21010;-69
2022/11/23 09:43:01;;;;;;;8.73;4.87;;;;;;;6.68;73.93;94186.89;1662729;86;21042;-67
2022/11/23 09:45:47;;;;;;;7.03;5.43;;;;;;;6.77;73.00;94184.91;1663041;86;21113;-71
2022/11/23 09:48:47;;;;;;;7.67;5.00;;;;;;;6.78;72.70;94178.76;1663893;86;21521;-68
2022/11/23 09:51:19;;;;;;;10.90;5.30;;;;;;;6.88;73.73;94177.19;1664057;86;21019;-64
2022/11/23 09:53:55;;;;;;;7.60;5.10;;;;;;;6.78;72.06;94187.52;1664211;86;21073;-68
2022/11/23 09:56:34;;;;;;;6.07;4.77;;;;;;;6.89;73.20;94197.70;1662577;86;21074;-69
2022/11/23 09:59:24;;;;;;;7.50;4.90;;;;;;;7.04;72.76;94186.80;1663092;86;21037;-67
2022/11/23 10:01:51;;;;;;;6.60;5.37;;;;;;;7.28;73.20;94191.82;1664121;86;21123;-68
2022/11/23 10:04:19;;;;;;;10.97;6.93;;;;;;;7.31;71.88;94189.56;1663529;86;21634;-68
2022/11/23 10:06:57;;;;;;;10.20;6.10;;;;;;;7.28;71.57;94191.82;1663714;86;21090;-66
2022/11/23 10:09:35;;;;;;;8.45;6.08;;;;;;;7.26;71.51;94192.77;1663576;86;21114;-67
2022/11/23 10:12:18;;;;;;;9.53;6.80;;;;;;;7.30;71.55;94186.05;1663453;86;20998;-67
2022/11/23 10:15:07;;;;;;;15.53;10.23;;;;;;;7.30;71.04;94180.80;1663897;86;21023;-67
2022/11/23 10:18:03;;;;;;;26.07;17.50;;;;;;;7.31;71.53;94181.23;1664211;86;21046;-67
2022/11/23 10:20:52;;;;;;;15.93;11.80;;;;;;;7.37;71.55;94189.38;1663868;85;21046;-67
2022/11/23 10:23:40;;;;;;;13.00;8.80;;;;;;;7.33;71.79;94185.99;1663900;86;21062;-67
2022/11/23 10:26:17;;;;;;;11.70;7.47;;;;;;;7.31;71.59;94186.48;1663774;86;21105;-68
2022/11/23 10:28:46;;;;;;;17.65;11.85;;;;;;;7.21;71.63;94186.80;1664155;86;21098;-67
2022/11/23 10:31:23;;;;;;;7.33;5.87;;;;;;;7.28;72.44;94179.13;1664126;86;21018;-68
2022/11/23 10:34:12;;;;;;;7.67;5.73;;;;;;;7.32;72.31;94174.22;1663278;86;21093;-67
2022/11/23 10:36:41;;;;;;;7.72;5.12;;;;;;;7.48;72.74;94170.22;1663394;86;21106;-67
2022/11/23 10:39:16;;;;;;;13.72;8.45;;;;;;;7.56;71.76;94164.31;1663218;86;21136;-69
2022/11/23 10:41:45;;;;;;;26.25;17.42;;;;;;;7.67;70.64;94157.88;1662731;86;21062;-72
2022/11/23 10:44:31;;;;;;;31.07;23.30;;;;;;;7.92;71.25;94152.73;1663785;85;21098;-69
2022/11/23 10:46:59;;;;;;;39.80;27.32;;;;;;;8.32;70.40;94151.00;1663623;86;21090;-67
2022/11/23 10:49:32;;;;;;;13.50;9.95;;;;;;;8.60;68.90;94145.70;1664105;86;21037;-67
2022/11/23 10:52:07;;;;;;;43.50;29.57;;;;;;;8.60;66.67;94148.79;1663935;86;21125;-69
2022/11/23 10:54:53;;;;;;;177.60;82.90;;;;;;;8.57;67.23;94147.59;1663931;86;21054;-68
2022/11/23 10:57:42;;;;;;;42.48;29.25;;;;;;;8.60;68.36;94140.91;1663956;86;21050;-69
2022/11/23 11:00:14;;;;;;;44.33;35.80;;;;;;;8.62;67.34;94142.57;1664309;86;21014;-71
2022/11/23 11:02:45;;;;;;;13.83;10.58;;;;;;;8.90;68.67;94140.75;1664236;86;21086;-67
2022/11/23 11:05:34;;;;;;;16.05;9.78;;;;;;;9.05;66.23;94142.38;1664171;86;21057;-68
2022/11/23 11:08:15;;;;;;;14.23;8.63;;;;;;;9.08;67.13;94144.03;1664081;86;20999;-68
2022/11/23 11:11:01;;;;;;;11.83;8.08;;;;;;;9.04;66.60;94141.95;1664138;85;21042;-69
2022/11/23 11:13:38;;;;;;;11.95;6.62;;;;;;;9.03;66.20;94140.25;1657402;86;21085;-68
2022/11/23 11:16:27;;;;;;;7.17;5.03;;;;;;;9.12;66.69;94135.56;1663920;86;21597;-68
2022/11/23 11:18:53;;;;;;;5.80;4.05;;;;;;;9.21;66.20;94131.29;1664288;86;21050;-66
2022/11/23 11:21:24;;;;;;;5.00;3.80;;;;;;;9.54;64.55;94135.28;1664338;86;21086;-65
2022/11/23 11:24:03;;;;;;;9.70;4.00;;;;;;;10.06;64.02;94127.14;1663934;86;21511;-66
2022/11/23 11:26:33;;;;;;;7.85;4.35;;;;;;;10.57;62.74;94121.14;1664031;86;21070;-65
2022/11/23 11:29:04;;;;;;;4.10;3.20;;;;;;;11.02;61.03;94116.13;1664085;86;21069;-66
2022/11/23 11:31:51;;;;;;;7.30;4.90;;;;;;;11.18;62.36;94114.51;1664219;86;21516;-66
2022/11/23 11:34:32;;;;;;;13.40;7.35;;;;;;;11.04;60.60;94121.73;1663975;86;21058;-66
2022/11/23 11:37:10;;;;;;;34.20;20.65;;;;;;;10.87;61.53;94129.98;1663723;86;21110;-66
2022/11/23 11:40:09;;;;;;;10.60;7.15;;;;;;;10.60;60.86;94134.19;1663839;86;21081;-66
2022/11/23 11:42:56;;;;;;;11.30;6.30;;;;;;;10.32;61.61;94141.07;1663961;86;21057;-65
2022/11/23 11:45:27;;;;;;;11.53;6.50;;;;;;;9.69;62.57;94143.06;1663902;86;21540;-65
2022/11/23 11:48:02;;;;;;;7.25;5.30;;;;;;;9.52;63.93;94135.83;1664207;86;21588;-64
2022/11/23 11:50:45;;;;;;;10.88;4.47;;;;;;;9.46;64.89;94136.04;1664076;85;21082;-65